sensor_id;sensor_type;location;lat;lon;timestamp;P1;durP1;ratioP1;P2;durP2;ratioP2
75990;SDS011;64673;52.276;10.560;2023-05-10T00:00:09;3.75;;;2.35;;
75990;SDS011;64673;52.276;10.560;2023-05-10T00:02:34;4.63;;;2.33;;
75990;SDS011;64673;52.276;10.560;2023-05-10T00:05:00;3.65;;;2.63;;
75990;SDS011;64673;52.276;10.560;2023-05-10T00:07:26;5.15;;;2.50;;
75990;SDS011;64673;52.276;10.560;2023-05-10T00:09:51;4.65;;;2.50;;
75990;SDS011;64673;52.276;10.560;2023-05-10T00:12:17;3.88;;;2.60;;
75990;SDS011;64673;52.276;10.560;2023-05-10T00:14:42;3.75;;;2.55;;
75990;SDS011;64673;52.276;10.560;2023-05-10T00:17:07;4.40;;;2.15;;
75990;SDS011;64673;52.276;10.560;2023-05-10T00:19:33;6.65;;;2.63;;
75990;SDS011;64673;52.276;10.560;2023-05-10T00:21:58;5.13;;;2.50;;
75990;SDS011;64673;52.276;10.560;2023-05-10T00:24:23;5.75;;;2.80;;
75990;SDS011;64673;52.276;10.560;2023-05-10T00:26:49;4.03;;;2.40;;
75990;SDS011;64673;52.276;10.560;2023-05-10T00:29:14;3.50;;;2.40;;
75990;SDS011;64673;52.276;10.560;2023-05-10T00:31:39;4.63;;;2.20;;
75990;SDS011;64673;52.276;10.560;2023-05-10T00:34:04;7.13;;;2.45;;
75990;SDS011;64673;52.276;10.560;2023-05-10T00:36:30;5.05;;;2.60;;
75990;SDS011;64673;52.276;10.560;2023-05-10T00:38:56;3.50;;;2.47;;
75990;SDS011;64673;52.276;10.560;2023-05-10T00:41:21;4.15;;;2.30;;
75990;SDS011;64673;52.276;10.560;2023-05-10T00:43:46;4.72;;;2.50;;
75990;SDS011;64673;52.276;10.560;2023-05-10T00:46:12;4.63;;;2.30;;
75990;SDS011;64673;52.276;10.560;2023-05-10T00:48:39;6.32;;;2.72;;
75990;SDS011;64673;52.276;10.560;2023-05-10T00:51:04;4.28;;;2.05;;
75990;SDS011;64673;52.276;10.560;2023-05-10T00:53:31;4.22;;;1.95;;
75990;SDS011;64673;52.276;10.560;2023-05-10T00:55:57;2.92;;;2.22;;
75990;SDS011;64673;52.276;10.560;2023-05-10T00:58:24;5.88;;;2.42;;
75990;SDS011;64673;52.276;10.560;2023-05-10T01:00:53;6.50;;;2.13;;
75990;SDS011;64673;52.276;10.560;2023-05-10T01:03:19;3.95;;;2.42;;
75990;SDS011;64673;52.276;10.560;2023-05-10T01:05:45;4.60;;;2.53;;
75990;SDS011;64673;52.276;10.560;2023-05-10T01:08:11;4.20;;;2.50;;
75990;SDS011;64673;52.276;10.560;2023-05-10T01:10:36;4.72;;;2.45;;
75990;SDS011;64673;52.276;10.560;2023-05-10T01:13:02;4.55;;;2.33;;
75990;SDS011;64673;52.276;10.560;2023-05-10T01:15:28;5.80;;;2.50;;
75990;SDS011;64673;52.276;10.560;2023-05-10T01:17:54;5.57;;;2.95;;
75990;SDS011;64673;52.276;10.560;2023-05-10T01:20:21;2.75;;;2.08;;
75990;SDS011;64673;52.276;10.560;2023-05-10T01:23:01;4.07;;;2.47;;
75990;SDS011;64673;52.276;10.560;2023-05-10T01:31:00;3.90;;;2.28;;
75990;SDS011;64673;52.276;10.560;2023-05-10T01:38:49;2.97;;;2.13;;
75990;SDS011;64673;52.276;10.560;2023-05-10T01:43:50;3.50;;;2.50;;
75990;SDS011;64673;52.276;10.560;2023-05-10T01:46:20;4.78;;;2.33;;
75990;SDS011;64673;52.276;10.560;2023-05-10T01:48:54;3.80;;;2.38;;
75990;SDS011;64673;52.276;10.560;2023-05-10T01:51:26;3.92;;;2.20;;
75990;SDS011;64673;52.276;10.560;2023-05-10T01:54:01;4.45;;;2.15;;
75990;SDS011;64673;52.276;10.560;2023-05-10T01:56:29;5.53;;;2.58;;
75990;SDS011;64673;52.276;10.560;2023-05-10T01:58:57;4.32;;;2.42;;
75990;SDS011;64673;52.276;10.560;2023-05-10T02:01:25;4.53;;;2.63;;
75990;SDS011;64673;52.276;10.560;2023-05-10T02:03:51;4.57;;;2.63;;
75990;SDS011;64673;52.276;10.560;2023-05-10T02:06:19;4.63;;;2.80;;
75990;SDS011;64673;52.276;10.560;2023-05-10T02:08:47;3.83;;;2.60;;
75990;SDS011;64673;52.276;10.560;2023-05-10T02:11:16;4.38;;;2.80;;
75990;SDS011;64673;52.276;10.560;2023-05-10T02:13:43;5.47;;;2.50;;
75990;SDS011;64673;52.276;10.560;2023-05-10T02:16:10;4.25;;;2.75;;
75990;SDS011;64673;52.276;10.560;2023-05-10T02:18:37;3.72;;;2.45;;
75990;SDS011;64673;52.276;10.560;2023-05-10T02:21:06;5.38;;;2.50;;
75990;SDS011;64673;52.276;10.560;2023-05-10T02:23:32;3.63;;;2.30;;
75990;SDS011;64673;52.276;10.560;2023-05-10T02:26:00;5.00;;;2.45;;
75990;SDS011;64673;52.276;10.560;2023-05-10T02:28:26;4.07;;;2.35;;
75990;SDS011;64673;52.276;10.560;2023-05-10T02:30:53;4.60;;;2.35;;
75990;SDS011;64673;52.276;10.560;2023-05-10T02:33:19;3.78;;;2.30;;
75990;SDS011;64673;52.276;10.560;2023-05-10T02:35:46;4.38;;;2.50;;
75990;SDS011;64673;52.276;10.560;2023-05-10T02:38:12;4.07;;;2.72;;
75990;SDS011;64673;52.276;10.560;2023-05-10T02:40:39;4.10;;;2.50;;
75990;SDS011;64673;52.276;10.560;2023-05-10T02:43:07;5.03;;;2.58;;
75990;SDS011;64673;52.276;10.560;2023-05-10T02:45:37;3.75;;;2.45;;
75990;SDS011;64673;52.276;10.560;2023-05-10T02:48:04;6.30;;;2.72;;
75990;SDS011;64673;52.276;10.560;2023-05-10T02:50:29;5.05;;;2.72;;
75990;SDS011;64673;52.276;10.560;2023-05-10T02:53:01;5.32;;;2.38;;
75990;SDS011;64673;52.276;10.560;2023-05-10T02:55:35;5.45;;;2.50;;
75990;SDS011;64673;52.276;10.560;2023-05-10T02:58:03;4.85;;;2.70;;
75990;SDS011;64673;52.276;10.560;2023-05-10T03:00:28;4.18;;;2.47;;
75990;SDS011;64673;52.276;10.560;2023-05-10T03:02:54;3.92;;;2.20;;
75990;SDS011;64673;52.276;10.560;2023-05-10T03:05:20;4.80;;;2.70;;
75990;SDS011;64673;52.276;10.560;2023-05-10T03:07:45;5.10;;;2.78;;
75990;SDS011;64673;52.276;10.560;2023-05-10T03:10:12;5.18;;;2.90;;
75990;SDS011;64673;52.276;10.560;2023-05-10T03:12:51;3.65;;;2.40;;
75990;SDS011;64673;52.276;10.560;2023-05-10T03:18:22;3.42;;;2.30;;
75990;SDS011;64673;52.276;10.560;2023-05-10T03:21:02;4.45;;;2.60;;
75990;SDS011;64673;52.276;10.560;2023-05-10T03:26:01;4.82;;;2.75;;
75990;SDS011;64673;52.276;10.560;2023-05-10T03:28:28;5.07;;;2.25;;
75990;SDS011;64673;52.276;10.560;2023-05-10T03:30:55;6.43;;;2.75;;
75990;SDS011;64673;52.276;10.560;2023-05-10T03:33:21;5.80;;;2.80;;
75990;SDS011;64673;52.276;10.560;2023-05-10T03:35:47;6.55;;;3.00;;
75990;SDS011;64673;52.276;10.560;2023-05-10T03:38:13;4.22;;;2.65;;
75990;SDS011;64673;52.276;10.560;2023-05-10T03:40:38;8.60;;;3.20;;
75990;SDS011;64673;52.276;10.560;2023-05-10T03:43:04;4.60;;;2.90;;
75990;SDS011;64673;52.276;10.560;2023-05-10T03:45:29;6.78;;;2.67;;
75990;SDS011;64673;52.276;10.560;2023-05-10T03:47:55;5.15;;;2.60;;
75990;SDS011;64673;52.276;10.560;2023-05-10T03:50:22;4.55;;;2.72;;
75990;SDS011;64673;52.276;10.560;2023-05-10T03:52:47;6.85;;;2.88;;
75990;SDS011;64673;52.276;10.560;2023-05-10T03:55:12;5.10;;;3.00;;
75990;SDS011;64673;52.276;10.560;2023-05-10T03:57:38;5.43;;;2.55;;
75990;SDS011;64673;52.276;10.560;2023-05-10T04:00:03;5.13;;;2.63;;
75990;SDS011;64673;52.276;10.560;2023-05-10T04:02:29;4.38;;;3.10;;
75990;SDS011;64673;52.276;10.560;2023-05-10T04:04:55;4.45;;;2.97;;
75990;SDS011;64673;52.276;10.560;2023-05-10T04:07:21;6.07;;;3.00;;
75990;SDS011;64673;52.276;10.560;2023-05-10T04:09:46;4.70;;;3.08;;
75990;SDS011;64673;52.276;10.560;2023-05-10T04:12:12;5.45;;;2.75;;
75990;SDS011;64673;52.276;10.560;2023-05-10T04:14:37;4.97;;;3.00;;
75990;SDS011;64673;52.276;10.560;2023-05-10T04:17:02;4.07;;;2.75;;
75990;SDS011;64673;52.276;10.560;2023-05-10T04:19:31;5.72;;;3.08;;
75990;SDS011;64673;52.276;10.560;2023-05-10T04:21:57;5.85;;;3.05;;
75990;SDS011;64673;52.276;10.560;2023-05-10T04:24:22;5.22;;;3.15;;
75990;SDS011;64673;52.276;10.560;2023-05-10T04:26:48;5.03;;;3.13;;
75990;SDS011;64673;52.276;10.560;2023-05-10T04:29:13;6.97;;;2.97;;
75990;SDS011;64673;52.276;10.560;2023-05-10T04:31:38;6.95;;;3.42;;
75990;SDS011;64673;52.276;10.560;2023-05-10T04:34:04;4.80;;;3.25;;
75990;SDS011;64673;52.276;10.560;2023-05-10T04:36:30;5.53;;;3.15;;
75990;SDS011;64673;52.276;10.560;2023-05-10T04:38:55;6.68;;;2.95;;
75990;SDS011;64673;52.276;10.560;2023-05-10T04:41:20;5.80;;;2.88;;
75990;SDS011;64673;52.276;10.560;2023-05-10T04:43:46;4.70;;;3.10;;
75990;SDS011;64673;52.276;10.560;2023-05-10T04:46:11;5.82;;;2.85;;
75990;SDS011;64673;52.276;10.560;2023-05-10T04:48:36;7.57;;;2.97;;
75990;SDS011;64673;52.276;10.560;2023-05-10T04:51:02;7.68;;;3.65;;
75990;SDS011;64673;52.276;10.560;2023-05-10T04:53:28;5.43;;;3.45;;
75990;SDS011;64673;52.276;10.560;2023-05-10T04:55:54;4.80;;;2.92;;
75990;SDS011;64673;52.276;10.560;2023-05-10T04:58:19;5.50;;;3.20;;
75990;SDS011;64673;52.276;10.560;2023-05-10T05:00:45;6.10;;;3.03;;
75990;SDS011;64673;52.276;10.560;2023-05-10T05:03:10;4.68;;;3.00;;
75990;SDS011;64673;52.276;10.560;2023-05-10T05:05:36;5.75;;;3.33;;
75990;SDS011;64673;52.276;10.560;2023-05-10T05:08:01;6.97;;;3.10;;
75990;SDS011;64673;52.276;10.560;2023-05-10T05:10:26;4.80;;;2.80;;
75990;SDS011;64673;52.276;10.560;2023-05-10T05:12:52;6.03;;;3.05;;
75990;SDS011;64673;52.276;10.560;2023-05-10T05:15:17;6.20;;;3.22;;
75990;SDS011;64673;52.276;10.560;2023-05-10T05:17:43;5.00;;;3.17;;
75990;SDS011;64673;52.276;10.560;2023-05-10T05:20:08;6.05;;;3.40;;
75990;SDS011;64673;52.276;10.560;2023-05-10T05:22:35;5.45;;;3.10;;
75990;SDS011;64673;52.276;10.560;2023-05-10T05:27:28;4.55;;;3.05;;
75990;SDS011;64673;52.276;10.560;2023-05-10T05:29:54;5.22;;;3.15;;
75990;SDS011;64673;52.276;10.560;2023-05-10T05:32:21;4.82;;;3.08;;
75990;SDS011;64673;52.276;10.560;2023-05-10T05:34:46;6.13;;;3.10;;
75990;SDS011;64673;52.276;10.560;2023-05-10T05:37:13;5.65;;;3.55;;
75990;SDS011;64673;52.276;10.560;2023-05-10T05:39:46;5.97;;;3.13;;
75990;SDS011;64673;52.276;10.560;2023-05-10T05:42:11;9.48;;;3.67;;
75990;SDS011;64673;52.276;10.560;2023-05-10T05:44:38;6.07;;;3.47;;
75990;SDS011;64673;52.276;10.560;2023-05-10T05:47:04;8.05;;;3.88;;
75990;SDS011;64673;52.276;10.560;2023-05-10T05:49:30;6.68;;;3.33;;
75990;SDS011;64673;52.276;10.560;2023-05-10T05:51:59;5.50;;;3.38;;
75990;SDS011;64673;52.276;10.560;2023-05-10T05:54:25;5.78;;;3.50;;
75990;SDS011;64673;52.276;10.560;2023-05-10T05:56:53;5.15;;;3.63;;
75990;SDS011;64673;52.276;10.560;2023-05-10T05:59:19;5.47;;;3.13;;
75990;SDS011;64673;52.276;10.560;2023-05-10T06:01:47;6.65;;;3.78;;
75990;SDS011;64673;52.276;10.560;2023-05-10T06:04:12;6.43;;;3.42;;
75990;SDS011;64673;52.276;10.560;2023-05-10T06:06:38;6.05;;;3.63;;
75990;SDS011;64673;52.276;10.560;2023-05-10T06:09:03;6.28;;;4.13;;
75990;SDS011;64673;52.276;10.560;2023-05-10T06:11:29;7.40;;;3.90;;
75990;SDS011;64673;52.276;10.560;2023-05-10T06:13:55;7.78;;;4.43;;
75990;SDS011;64673;52.276;10.560;2023-05-10T06:16:21;5.90;;;4.05;;
75990;SDS011;64673;52.276;10.560;2023-05-10T06:18:46;6.88;;;4.20;;
75990;SDS011;64673;52.276;10.560;2023-05-10T06:21:11;6.18;;;3.47;;
75990;SDS011;64673;52.276;10.560;2023-05-10T06:23:37;6.82;;;3.90;;
75990;SDS011;64673;52.276;10.560;2023-05-10T06:26:02;6.35;;;3.78;;
75990;SDS011;64673;52.276;10.560;2023-05-10T06:28:28;8.40;;;4.03;;
75990;SDS011;64673;52.276;10.560;2023-05-10T06:30:53;5.65;;;3.85;;
75990;SDS011;64673;52.276;10.560;2023-05-10T06:33:18;15.75;;;4.30;;
75990;SDS011;64673;52.276;10.560;2023-05-10T06:35:44;9.65;;;4.00;;
75990;SDS011;64673;52.276;10.560;2023-05-10T06:38:09;6.35;;;3.42;;
75990;SDS011;64673;52.276;10.560;2023-05-10T06:40:34;6.32;;;3.78;;
75990;SDS011;64673;52.276;10.560;2023-05-10T06:43:00;8.05;;;3.67;;
75990;SDS011;64673;52.276;10.560;2023-05-10T06:45:26;5.85;;;3.67;;
75990;SDS011;64673;52.276;10.560;2023-05-10T06:47:51;6.38;;;3.97;;
75990;SDS011;64673;52.276;10.560;2023-05-10T06:50:18;8.05;;;4.15;;
75990;SDS011;64673;52.276;10.560;2023-05-10T06:52:43;6.22;;;3.83;;
75990;SDS011;64673;52.276;10.560;2023-05-10T06:55:09;8.82;;;4.30;;
75990;SDS011;64673;52.276;10.560;2023-05-10T06:57:34;7.13;;;4.20;;
75990;SDS011;64673;52.276;10.560;2023-05-10T07:00:00;12.80;;;4.38;;
75990;SDS011;64673;52.276;10.560;2023-05-10T07:02:26;6.35;;;4.03;;
75990;SDS011;64673;52.276;10.560;2023-05-10T07:04:51;7.15;;;4.70;;
75990;SDS011;64673;52.276;10.560;2023-05-10T07:07:17;6.95;;;4.50;;
75990;SDS011;64673;52.276;10.560;2023-05-10T07:09:43;7.38;;;5.20;;
75990;SDS011;64673;52.276;10.560;2023-05-10T07:12:08;8.05;;;4.78;;
75990;SDS011;64673;52.276;10.560;2023-05-10T07:14:33;8.45;;;5.25;;
75990;SDS011;64673;52.276;10.560;2023-05-10T07:16:59;7.10;;;4.70;;
75990;SDS011;64673;52.276;10.560;2023-05-10T07:19:24;6.50;;;4.25;;
75990;SDS011;64673;52.276;10.560;2023-05-10T07:21:49;8.90;;;5.43;;
75990;SDS011;64673;52.276;10.560;2023-05-10T07:24:15;7.45;;;4.70;;
75990;SDS011;64673;52.276;10.560;2023-05-10T07:26:41;8.27;;;5.05;;
75990;SDS011;64673;52.276;10.560;2023-05-10T07:29:06;8.23;;;4.90;;
75990;SDS011;64673;52.276;10.560;2023-05-10T07:31:31;8.27;;;5.22;;
75990;SDS011;64673;52.276;10.560;2023-05-10T07:33:57;10.52;;;5.18;;
75990;SDS011;64673;52.276;10.560;2023-05-10T07:36:22;8.85;;;5.28;;
75990;SDS011;64673;52.276;10.560;2023-05-10T07:38:47;10.75;;;5.35;;
75990;SDS011;64673;52.276;10.560;2023-05-10T07:41:14;9.63;;;5.38;;
75990;SDS011;64673;52.276;10.560;2023-05-10T07:43:39;11.48;;;5.30;;
75990;SDS011;64673;52.276;10.560;2023-05-10T07:46:05;10.02;;;5.65;;
75990;SDS011;64673;52.276;10.560;2023-05-10T07:48:30;9.48;;;5.25;;
75990;SDS011;64673;52.276;10.560;2023-05-10T07:50:56;9.45;;;5.43;;
75990;SDS011;64673;52.276;10.560;2023-05-10T07:53:21;7.30;;;4.57;;
75990;SDS011;64673;52.276;10.560;2023-05-10T07:56:30;8.85;;;5.35;;
75990;SDS011;64673;52.276;10.560;2023-05-10T07:58:56;9.90;;;5.35;;
75990;SDS011;64673;52.276;10.560;2023-05-10T08:01:23;9.05;;;5.55;;
75990;SDS011;64673;52.276;10.560;2023-05-10T08:03:48;10.65;;;5.38;;
75990;SDS011;64673;52.276;10.560;2023-05-10T08:06:16;10.55;;;6.07;;
75990;SDS011;64673;52.276;10.560;2023-05-10T08:08:43;10.65;;;5.93;;
75990;SDS011;64673;52.276;10.560;2023-05-10T08:11:10;9.88;;;6.18;;
75990;SDS011;64673;52.276;10.560;2023-05-10T08:13:35;9.85;;;6.10;;
75990;SDS011;64673;52.276;10.560;2023-05-10T08:16:01;10.10;;;5.43;;
75990;SDS011;64673;52.276;10.560;2023-05-10T08:18:26;9.20;;;6.07;;
75990;SDS011;64673;52.276;10.560;2023-05-10T08:20:51;9.90;;;6.18;;
75990;SDS011;64673;52.276;10.560;2023-05-10T08:23:17;10.65;;;6.05;;
75990;SDS011;64673;52.276;10.560;2023-05-10T08:25:42;10.43;;;6.75;;
75990;SDS011;64673;52.276;10.560;2023-05-10T08:28:07;11.32;;;6.25;;
75990;SDS011;64673;52.276;10.560;2023-05-10T08:30:33;9.88;;;6.20;;
75990;SDS011;64673;52.276;10.560;2023-05-10T08:32:58;10.00;;;6.05;;
75990;SDS011;64673;52.276;10.560;2023-05-10T08:35:23;10.32;;;5.82;;
75990;SDS011;64673;52.276;10.560;2023-05-10T08:37:50;10.57;;;5.80;;
75990;SDS011;64673;52.276;10.560;2023-05-10T08:40:15;10.90;;;6.45;;
75990;SDS011;64673;52.276;10.560;2023-05-10T08:42:45;11.30;;;6.13;;
75990;SDS011;64673;52.276;10.560;2023-05-10T08:45:19;10.80;;;6.03;;
75990;SDS011;64673;52.276;10.560;2023-05-10T08:47:46;9.65;;;6.05;;
75990;SDS011;64673;52.276;10.560;2023-05-10T08:50:12;12.38;;;6.38;;
75990;SDS011;64673;52.276;10.560;2023-05-10T08:52:39;10.27;;;5.93;;
75990;SDS011;64673;52.276;10.560;2023-05-10T08:55:06;7.93;;;5.30;;
75990;SDS011;64673;52.276;10.560;2023-05-10T08:57:32;10.75;;;6.22;;
75990;SDS011;64673;52.276;10.560;2023-05-10T08:59:57;11.43;;;6.55;;
75990;SDS011;64673;52.276;10.560;2023-05-10T09:02:25;9.93;;;5.70;;
75990;SDS011;64673;52.276;10.560;2023-05-10T09:04:51;9.52;;;5.50;;
75990;SDS011;64673;52.276;10.560;2023-05-10T09:07:16;10.43;;;5.90;;
75990;SDS011;64673;52.276;10.560;2023-05-10T09:09:42;10.60;;;6.78;;
75990;SDS011;64673;52.276;10.560;2023-05-10T09:12:09;10.80;;;5.82;;
75990;SDS011;64673;52.276;10.560;2023-05-10T09:14:36;11.65;;;7.15;;
75990;SDS011;64673;52.276;10.560;2023-05-10T09:17:02;10.02;;;6.38;;
75990;SDS011;64673;52.276;10.560;2023-05-10T09:19:29;12.32;;;7.28;;
75990;SDS011;64673;52.276;10.560;2023-05-10T09:21:54;11.85;;;6.80;;
75990;SDS011;64673;52.276;10.560;2023-05-10T09:24:20;10.77;;;6.00;;
75990;SDS011;64673;52.276;10.560;2023-05-10T09:26:50;8.85;;;5.88;;
75990;SDS011;64673;52.276;10.560;2023-05-10T09:29:16;10.60;;;5.80;;
75990;SDS011;64673;52.276;10.560;2023-05-10T09:34:11;12.35;;;7.07;;
75990;SDS011;64673;52.276;10.560;2023-05-10T09:36:36;9.98;;;5.95;;
75990;SDS011;64673;52.276;10.560;2023-05-10T09:39:15;11.50;;;6.63;;
75990;SDS011;64673;52.276;10.560;2023-05-10T09:41:41;10.98;;;6.50;;
75990;SDS011;64673;52.276;10.560;2023-05-10T09:44:07;11.35;;;6.75;;
75990;SDS011;64673;52.276;10.560;2023-05-10T09:46:34;10.10;;;6.38;;
75990;SDS011;64673;52.276;10.560;2023-05-10T09:49:00;9.55;;;6.18;;
75990;SDS011;64673;52.276;10.560;2023-05-10T09:51:26;10.27;;;6.22;;
75990;SDS011;64673;52.276;10.560;2023-05-10T09:54:13;10.35;;;6.07;;
75990;SDS011;64673;52.276;10.560;2023-05-10T09:56:41;10.05;;;6.18;;
75990;SDS011;64673;52.276;10.560;2023-05-10T09:59:09;10.52;;;6.55;;
75990;SDS011;64673;52.276;10.560;2023-05-10T10:01:35;10.75;;;6.10;;
75990;SDS011;64673;52.276;10.560;2023-05-10T10:04:05;9.65;;;6.50;;
75990;SDS011;64673;52.276;10.560;2023-05-10T10:06:37;7.15;;;4.32;;
75990;SDS011;64673;52.276;10.560;2023-05-10T10:09:03;7.35;;;4.25;;
75990;SDS011;64673;52.276;10.560;2023-05-10T10:11:30;4.57;;;2.53;;
75990;SDS011;64673;52.276;10.560;2023-05-10T10:13:56;5.82;;;3.00;;
75990;SDS011;64673;52.276;10.560;2023-05-10T10:16:21;3.80;;;2.30;;
75990;SDS011;64673;52.276;10.560;2023-05-10T10:18:47;3.17;;;1.85;;
75990;SDS011;64673;52.276;10.560;2023-05-10T10:21:13;3.10;;;1.77;;
75990;SDS011;64673;52.276;10.560;2023-05-10T10:26:05;2.87;;;1.70;;
75990;SDS011;64673;52.276;10.560;2023-05-10T10:34:06;1.80;;;1.20;;
75990;SDS011;64673;52.276;10.560;2023-05-10T10:36:39;2.10;;;1.00;;
75990;SDS011;64673;52.276;10.560;2023-05-10T10:39:10;1.70;;;0.90;;
75990;SDS011;64673;52.276;10.560;2023-05-10T10:41:36;2.20;;;1.50;;
75990;SDS011;64673;52.276;10.560;2023-05-10T10:47:03;3.03;;;0.88;;
75990;SDS011;64673;52.276;10.560;2023-05-10T10:54:58;1.60;;;1.10;;
75990;SDS011;64673;52.276;10.560;2023-05-10T10:57:24;3.53;;;1.00;;
75990;SDS011;64673;52.276;10.560;2023-05-10T10:59:51;1.27;;;0.70;;
75990;SDS011;64673;52.276;10.560;2023-05-10T11:02:43;1.40;;;0.80;;
75990;SDS011;64673;52.276;10.560;2023-05-10T11:07:57;1.33;;;0.88;;
75990;SDS011;64673;52.276;10.560;2023-05-10T11:10:24;1.60;;;0.82;;
75990;SDS011;64673;52.276;10.560;2023-05-10T11:12:58;2.78;;;0.90;;
75990;SDS011;64673;52.276;10.560;2023-05-10T11:15:36;2.42;;;1.00;;
75990;SDS011;64673;52.276;10.560;2023-05-10T11:18:16;1.10;;;0.63;;
75990;SDS011;64673;52.276;10.560;2023-05-10T11:20:41;1.20;;;0.75;;
75990;SDS011;64673;52.276;10.560;2023-05-10T11:23:11;2.25;;;0.85;;
75990;SDS011;64673;52.276;10.560;2023-05-10T11:25:44;1.38;;;0.60;;
75990;SDS011;64673;52.276;10.560;2023-05-10T11:28:11;5.18;;;1.02;;
75990;SDS011;64673;52.276;10.560;2023-05-10T11:30:40;1.50;;;0.85;;
75990;SDS011;64673;52.276;10.560;2023-05-10T11:33:06;1.67;;;0.60;;
75990;SDS011;64673;52.276;10.560;2023-05-10T11:35:37;1.67;;;0.80;;
75990;SDS011;64673;52.276;10.560;2023-05-10T11:38:07;2.15;;;0.90;;
75990;SDS011;64673;52.276;10.560;2023-05-10T11:40:34;1.75;;;0.82;;
75990;SDS011;64673;52.276;10.560;2023-05-10T11:43:00;1.52;;;1.00;;
75990;SDS011;64673;52.276;10.560;2023-05-10T11:45:25;1.98;;;0.93;;
75990;SDS011;64673;52.276;10.560;2023-05-10T11:47:51;1.40;;;0.80;;
75990;SDS011;64673;52.276;10.560;2023-05-10T11:50:17;1.98;;;1.00;;
75990;SDS011;64673;52.276;10.560;2023-05-10T11:52:42;5.60;;;1.90;;
75990;SDS011;64673;52.276;10.560;2023-05-10T11:55:08;1.52;;;1.05;;
75990;SDS011;64673;52.276;10.560;2023-05-10T11:57:33;3.30;;;1.50;;
75990;SDS011;64673;52.276;10.560;2023-05-10T11:59:58;3.00;;;1.20;;
75990;SDS011;64673;52.276;10.560;2023-05-10T12:02:24;3.05;;;1.50;;
75990;SDS011;64673;52.276;10.560;2023-05-10T12:04:50;1.90;;;1.10;;
75990;SDS011;64673;52.276;10.560;2023-05-10T12:07:16;1.63;;;0.90;;
75990;SDS011;64673;52.276;10.560;2023-05-10T12:09:44;1.27;;;0.50;;
75990;SDS011;64673;52.276;10.560;2023-05-10T12:12:27;1.08;;;0.60;;
75990;SDS011;64673;52.276;10.560;2023-05-10T12:14:52;1.30;;;0.77;;
75990;SDS011;64673;52.276;10.560;2023-05-10T12:17:17;1.88;;;1.00;;
75990;SDS011;64673;52.276;10.560;2023-05-10T12:19:43;1.60;;;0.90;;
75990;SDS011;64673;52.276;10.560;2023-05-10T12:22:10;1.63;;;0.77;;
75990;SDS011;64673;52.276;10.560;2023-05-10T12:24:36;2.65;;;0.85;;
75990;SDS011;64673;52.276;10.560;2023-05-10T12:27:07;1.95;;;0.70;;
75990;SDS011;64673;52.276;10.560;2023-05-10T12:29:33;1.30;;;0.70;;
75990;SDS011;64673;52.276;10.560;2023-05-10T12:31:59;2.38;;;1.00;;
75990;SDS011;64673;52.276;10.560;2023-05-10T12:34:34;1.60;;;0.80;;
75990;SDS011;64673;52.276;10.560;2023-05-10T12:37:03;1.00;;;0.60;;
75990;SDS011;64673;52.276;10.560;2023-05-10T12:39:39;3.75;;;1.00;;
75990;SDS011;64673;52.276;10.560;2023-05-10T12:42:05;1.92;;;0.52;;
75990;SDS011;64673;52.276;10.560;2023-05-10T12:44:31;2.60;;;0.70;;
75990;SDS011;64673;52.276;10.560;2023-05-10T12:46:56;1.10;;;0.52;;
75990;SDS011;64673;52.276;10.560;2023-05-10T12:49:22;1.65;;;0.77;;
75990;SDS011;64673;52.276;10.560;2023-05-10T12:51:47;2.95;;;0.98;;
75990;SDS011;64673;52.276;10.560;2023-05-10T12:54:12;2.72;;;0.85;;
75990;SDS011;64673;52.276;10.560;2023-05-10T12:56:38;1.98;;;0.63;;
75990;SDS011;64673;52.276;10.560;2023-05-10T12:59:03;1.60;;;1.00;;
75990;SDS011;64673;52.276;10.560;2023-05-10T13:01:29;2.28;;;0.95;;
75990;SDS011;64673;52.276;10.560;2023-05-10T13:03:54;1.08;;;0.70;;
75990;SDS011;64673;52.276;10.560;2023-05-10T13:06:19;1.00;;;0.60;;
75990;SDS011;64673;52.276;10.560;2023-05-10T13:08:45;1.83;;;0.68;;
75990;SDS011;64673;52.276;10.560;2023-05-10T13:11:10;1.17;;;0.77;;
75990;SDS011;64673;52.276;10.560;2023-05-10T13:13:35;2.63;;;0.90;;
75990;SDS011;64673;52.276;10.560;2023-05-10T13:16:01;2.15;;;0.98;;
75990;SDS011;64673;52.276;10.560;2023-05-10T13:18:26;2.33;;;1.10;;
75990;SDS011;64673;52.276;10.560;2023-05-10T13:20:51;1.63;;;0.60;;
75990;SDS011;64673;52.276;10.560;2023-05-10T13:23:18;1.75;;;0.90;;
75990;SDS011;64673;52.276;10.560;2023-05-10T13:25:43;2.55;;;0.90;;
75990;SDS011;64673;52.276;10.560;2023-05-10T13:28:09;1.15;;;0.70;;
75990;SDS011;64673;52.276;10.560;2023-05-10T13:30:34;1.27;;;0.70;;
75990;SDS011;64673;52.276;10.560;2023-05-10T13:32:59;1.92;;;1.10;;
75990;SDS011;64673;52.276;10.560;2023-05-10T13:35:25;1.52;;;0.90;;
75990;SDS011;64673;52.276;10.560;2023-05-10T13:37:50;1.63;;;0.80;;
75990;SDS011;64673;52.276;10.560;2023-05-10T13:40:15;2.63;;;1.00;;
75990;SDS011;64673;52.276;10.560;2023-05-10T13:42:41;2.95;;;0.95;;
75990;SDS011;64673;52.276;10.560;2023-05-10T13:45:07;1.70;;;1.00;;
75990;SDS011;64673;52.276;10.560;2023-05-10T13:47:32;2.33;;;0.65;;
75990;SDS011;64673;52.276;10.560;2023-05-10T13:49:58;1.20;;;0.80;;
75990;SDS011;64673;52.276;10.560;2023-05-10T13:52:23;2.25;;;0.77;;
75990;SDS011;64673;52.276;10.560;2023-05-10T13:54:48;2.08;;;0.93;;
75990;SDS011;64673;52.276;10.560;2023-05-10T13:57:14;3.70;;;0.88;;
75990;SDS011;64673;52.276;10.560;2023-05-10T13:59:41;1.65;;;1.05;;
75990;SDS011;64673;52.276;10.560;2023-05-10T14:02:06;3.25;;;1.00;;
75990;SDS011;64673;52.276;10.560;2023-05-10T14:04:32;1.52;;;0.80;;
75990;SDS011;64673;52.276;10.560;2023-05-10T14:06:59;1.20;;;0.68;;
75990;SDS011;64673;52.276;10.560;2023-05-10T14:09:24;2.53;;;0.90;;
75990;SDS011;64673;52.276;10.560;2023-05-10T14:11:49;2.47;;;0.82;;
75990;SDS011;64673;52.276;10.560;2023-05-10T14:14:15;1.98;;;0.70;;
75990;SDS011;64673;52.276;10.560;2023-05-10T14:16:43;3.60;;;0.90;;
75990;SDS011;64673;52.276;10.560;2023-05-10T14:19:09;1.83;;;0.60;;
75990;SDS011;64673;52.276;10.560;2023-05-10T14:21:36;2.03;;;0.80;;
75990;SDS011;64673;52.276;10.560;2023-05-10T14:24:01;2.78;;;1.13;;
75990;SDS011;64673;52.276;10.560;2023-05-10T14:26:27;1.48;;;0.98;;
75990;SDS011;64673;52.276;10.560;2023-05-10T14:28:52;1.73;;;0.90;;
75990;SDS011;64673;52.276;10.560;2023-05-10T14:31:18;2.28;;;0.80;;
75990;SDS011;64673;52.276;10.560;2023-05-10T14:36:10;0.95;;;0.70;;
75990;SDS011;64673;52.276;10.560;2023-05-10T14:38:35;1.52;;;0.80;;
75990;SDS011;64673;52.276;10.560;2023-05-10T14:41:01;1.63;;;0.85;;
75990;SDS011;64673;52.276;10.560;2023-05-10T14:43:26;3.30;;;1.20;;
75990;SDS011;64673;52.276;10.560;2023-05-10T14:45:53;1.80;;;0.85;;
75990;SDS011;64673;52.276;10.560;2023-05-10T14:48:18;1.65;;;0.82;;
75990;SDS011;64673;52.276;10.560;2023-05-10T14:50:44;1.50;;;0.70;;
75990;SDS011;64673;52.276;10.560;2023-05-10T14:53:10;0.77;;;0.50;;
75990;SDS011;64673;52.276;10.560;2023-05-10T14:55:35;1.80;;;0.73;;
75990;SDS011;64673;52.276;10.560;2023-05-10T14:58:02;2.50;;;0.82;;
75990;SDS011;64673;52.276;10.560;2023-05-10T15:00:28;2.53;;;0.70;;
75990;SDS011;64673;52.276;10.560;2023-05-10T15:02:54;1.20;;;0.52;;
75990;SDS011;64673;52.276;10.560;2023-05-10T15:05:19;1.10;;;0.70;;
75990;SDS011;64673;52.276;10.560;2023-05-10T15:07:44;2.17;;;0.70;;
75990;SDS011;64673;52.276;10.560;2023-05-10T15:10:10;1.95;;;0.82;;
75990;SDS011;64673;52.276;10.560;2023-05-10T15:12:36;4.05;;;0.82;;
75990;SDS011;64673;52.276;10.560;2023-05-10T15:15:02;2.80;;;0.75;;